Wetterdaten: Woche 24.03.14 - 30.03.14 (KW13)
Datum Zeit Temp. A. Feuchte A. Luftdruck Regen Wind Richtung Sonnenschein ET UV Solar Taupunkt Windchill Windben
24.03.2014 00:00 2,0 C 95 % 1007,7 hPa 0,0 l/m 0,5 km/h (0 Bft) W 0,00 h 0,000 mm 0,0 UV-I 0 W/m 1,2 C 2,0 C 0,9 km/h (0 Bft)
24.03.2014 01:00 2,0 C 96 % 1007,8 hPa 0,4 l/m 1,5 km/h (1 Bft) W-SW 0,00 h 0,000 mm 0,0 UV-I 0 W/m 1,5 C 2,0 C 2,5 km/h (1 Bft)
24.03.2014 02:00 2,1 C 96 % 1007,9 hPa 0,0 l/m 0,4 km/h (0 Bft) W-SW 0,00 h 0,000 mm 0,0 UV-I 0 W/m 1,6 C 2,1 C 1,4 km/h (1 Bft)
24.03.2014 03:00 2,3 C 96 % 1008,0 hPa 0,0 l/m 0,3 km/h (0 Bft) W-SW 0,00 h 0,000 mm 0,0 UV-I 0 W/m 1,7 C 2,3 C 0,7 km/h (0 Bft)
24.03.2014 04:00 2,2 C 95 % 1008,2 hPa 0,0 l/m 0,0 km/h (0 Bft) N 0,00 h 0,000 mm 0,0 UV-I 0 W/m 1,6 C 2,2 C 0,2 km/h (0 Bft)
24.03.2014 05:00 2,2 C 95 % 1008,5 hPa 0,0 l/m 0,0 km/h (0 Bft) N 0,00 h 0,000 mm 0,0 UV-I 0 W/m 1,4 C 2,2 C 0,0 km/h (0 Bft)
24.03.2014 06:00 2,0 C 95 % 1009,1 hPa 0,2 l/m 0,9 km/h (0 Bft) W-NW 0,00 h 0,000 mm 0,0 UV-I 11 W/m 1,3 C 2,0 C 1,9 km/h (1 Bft)
24.03.2014 07:00 2,2 C 95 % 1009,8 hPa 0,0 l/m 4,3 km/h (1 Bft) NW 0,00 h 0,000 mm 0,0 UV-I 27 W/m 1,4 C 2,2 C 6,6 km/h (2 Bft)
24.03.2014 08:00 2,5 C 93 % 1010,2 hPa 0,2 l/m 3,9 km/h (1 Bft) NW 0,73 h 0,000 mm 0,0 UV-I 59 W/m 1,5 C 2,5 C 6,5 km/h (2 Bft)
24.03.2014 09:00 2,9 C 93 % 1010,8 hPa 0,0 l/m 6,8 km/h (2 Bft) NW 0,97 h 0,025 mm 0,6 UV-I 67 W/m 1,9 C 2,1 C 10,4 km/h (2 Bft)
24.03.2014 10:00 2,8 C 93 % 1011,3 hPa 0,4 l/m 7,8 km/h (2 Bft) N-NW 1,00 h 0,025 mm 0,6 UV-I 93 W/m 1,8 C 1,3 C 11,7 km/h (2 Bft)
24.03.2014 11:00 3,3 C 92 % 1011,6 hPa 0,0 l/m 6,9 km/h (2 Bft) N-NW 1,00 h 0,051 mm 1,2 UV-I 198 W/m 2,1 C 2,4 C 10,4 km/h (2 Bft)
24.03.2014 12:00 4,8 C 86 % 1011,5 hPa 0,0 l/m 8,6 km/h (2 Bft) N-NW 1,00 h 0,076 mm 1,7 UV-I 308 W/m 2,6 C 2,8 C 13,2 km/h (3 Bft)
24.03.2014 13:00 5,5 C 84 % 1011,1 hPa 0,0 l/m 8,4 km/h (2 Bft) N 1,00 h 0,127 mm 1,5 UV-I 285 W/m 2,9 C 3,6 C 12,7 km/h (3 Bft)
24.03.2014 14:00 4,9 C 85 % 1010,9 hPa 0,0 l/m 8,0 km/h (2 Bft) N-NW 1,00 h 0,127 mm 0,9 UV-I 153 W/m 2,5 C 3,3 C 11,8 km/h (2 Bft)
24.03.2014 15:00 5,0 C 81 % 1010,9 hPa 0,0 l/m 3,7 km/h (1 Bft) N 1,00 h 0,076 mm 0,7 UV-I 182 W/m 2,1 C 4,9 C 6,0 km/h (2 Bft)
24.03.2014 16:00 5,6 C 79 % 1010,9 hPa 0,0 l/m 5,3 km/h (1 Bft) N 1,00 h 0,076 mm 0,5 UV-I 132 W/m 2,1 C 5,1 C 8,8 km/h (2 Bft)
24.03.2014 17:00 5,6 C 76 % 1011,0 hPa 0,0 l/m 5,4 km/h (1 Bft) N 0,50 h 0,076 mm 0,0 UV-I 70 W/m 1,6 C 5,2 C 8,6 km/h (2 Bft)
24.03.2014 18:00 4,1 C 80 % 1011,3 hPa 0,0 l/m 2,1 km/h (1 Bft) N-NO 0,00 h 0,051 mm 0,0 UV-I 10 W/m 1,0 C 4,1 C 4,1 km/h (1 Bft)
24.03.2014 19:00 2,6 C 86 % 1011,8 hPa 0,0 l/m 0,2 km/h (0 Bft) NO 0,00 h 0,000 mm 0,0 UV-I 0 W/m 0,4 C 2,6 C 0,6 km/h (0 Bft)
24.03.2014 20:00 1,1 C 90 % 1012,1 hPa 0,0 l/m 0,0 km/h (0 Bft) N 0,00 h 0,000 mm 0,0 UV-I 0 W/m -0,4 C 1,1 C 0,0 km/h (0 Bft)
24.03.2014 21:00 0,3 C 93 % 1012,2 hPa 0,0 l/m 0,1 km/h (0 Bft) O 0,00 h 0,000 mm 0,0 UV-I 0 W/m -0,8 C 0,3 C 0,3 km/h (0 Bft)
24.03.2014 22:00 -0,1 C 94 % 1012,3 hPa 0,0 l/m 0,3 km/h (0 Bft) O 0,00 h 0,000 mm 0,0 UV-I 0 W/m -0,9 C -0,1 C 1,1 km/h (1 Bft)
24.03.2014 23:00 -0,5 C 94 % 1012,4 hPa 0,0 l/m 0,1 km/h (0 Bft) O-NO 0,00 h 0,000 mm 0,0 UV-I 0 W/m -1,3 C -0,5 C 0,2 km/h (0 Bft)
25.03.2014 00:00 -0,7 C 95 % 1012,4 hPa 0,0 l/m 0,1 km/h (0 Bft) O-NO 0,00 h 0,000 mm 0,0 UV-I 0 W/m -1,4 C -0,7 C 0,6 km/h (0 Bft)
25.03.2014 01:00 -0,6 C 95 % 1012,2 hPa 0,0 l/m 0,0 km/h (0 Bft) N 0,00 h 0,000 mm 0,0 UV-I 0 W/m -1,3 C -0,6 C 0,2 km/h (0 Bft)
25.03.2014 02:00 -1,1 C 95 % 1011,9 hPa 0,0 l/m 0,1 km/h (0 Bft) O 0,00 h 0,000 mm 0,0 UV-I 0 W/m -1,9 C -1,1 C 0,3 km/h (0 Bft)
25.03.2014 03:00 -1,7 C 95 % 1011,8 hPa 0,0 l/m 0,1 km/h (0 Bft) NO 0,00 h 0,000 mm 0,0 UV-I 0 W/m -2,4 C -1,7 C 0,3 km/h (0 Bft)
25.03.2014 04:00 -1,7 C 95 % 1011,7 hPa 0,0 l/m 0,1 km/h (0 Bft) N 0,00 h 0,000 mm 0,0 UV-I 0 W/m -2,4 C -1,7 C 0,4 km/h (0 Bft)
25.03.2014 05:00 -1,3 C 96 % 1011,5 hPa 0,0 l/m 0,2 km/h (0 Bft) S 0,00 h 0,000 mm 0,0 UV-I 0 W/m -1,9 C -1,3 C 0,6 km/h (0 Bft)
25.03.2014 06:00 -1,3 C 96 % 1011,3 hPa 0,0 l/m 0,0 km/h (0 Bft) N 0,00 h 0,000 mm 0,0 UV-I 17 W/m -1,9 C -1,3 C 0,0 km/h (0 Bft)
25.03.2014 07:00 -1,4 C 96 % 1011,3 hPa 0,0 l/m 0,0 km/h (0 Bft) N 0,78 h 0,000 mm 0,0 UV-I 79 W/m -1,9 C -1,4 C 0,0 km/h (0 Bft)
25.03.2014 08:00 -0,3 C 97 % 1011,5 hPa 0,0 l/m 0,1 km/h (0 Bft) W 1,00 h 0,025 mm 0,6 UV-I 162 W/m -0,7 C -0,3 C 0,2 km/h (0 Bft)
25.03.2014 09:00 2,6 C 91 % 1011,4 hPa 0,0 l/m 1,3 km/h (1 Bft) W-NW 1,00 h 0,051 mm 1,3 UV-I 354 W/m 1,3 C 2,6 C 2,8 km/h (1 Bft)
25.03.2014 10:00 4,2 C 82 % 1011,1 hPa 0,0 l/m 2,9 km/h (1 Bft) W-NW 1,00 h 0,127 mm 1,7 UV-I 302 W/m 1,3 C 4,1 C 5,4 km/h (1 Bft)
25.03.2014 11:00 6,2 C 65 % 1010,4 hPa 0,0 l/m 5,1 km/h (1 Bft) W-SW 1,00 h 0,127 mm 2,5 UV-I 629 W/m 0,1 C 5,7 C 8,3 km/h (2 Bft)
25.03.2014 12:00 4,9 C 74 % 1010,1 hPa 0,0 l/m 6,4 km/h (2 Bft) O-NO 1,00 h 0,279 mm 1,6 UV-I 186 W/m 0,6 C 3,4 C 10,8 km/h (2 Bft)
25.03.2014 13:00 5,2 C 68 % 1009,8 hPa 0,0 l/m 5,6 km/h (1 Bft) N 1,00 h 0,102 mm 1,1 UV-I 174 W/m -0,2 C 4,4 C 8,3 km/h (2 Bft)
25.03.2014 14:00 4,3 C 76 % 1009,8 hPa 0,0 l/m 9,0 km/h (2 Bft) NW 1,00 h 0,076 mm 1,1 UV-I 151 W/m 0,4 C 2,1 C 12,7 km/h (3 Bft)
25.03.2014 15:00 5,7 C 68 % 1009,3 hPa 0,0 l/m 2,1 km/h (1 Bft) NW 1,00 h 0,076 mm 1,1 UV-I 300 W/m 0,1 C 5,6 C 3,6 km/h (1 Bft)
25.03.2014 16:00 6,9 C 55 % 1009,2 hPa 0,0 l/m 2,6 km/h (1 Bft) S-SW 1,00 h 0,127 mm 0,7 UV-I 275 W/m -1,6 C 6,9 C 4,8 km/h (1 Bft)
25.03.2014 17:00 6,6 C 55 % 1009,5 hPa 0,0 l/m 1,9 km/h (1 Bft) NW 0,48 h 0,127 mm 0,5 UV-I 74 W/m -1,8 C 6,6 C 3,7 km/h (1 Bft)
25.03.2014 18:00 4,7 C 67 % 1010,1 hPa 0,0 l/m 2,7 km/h (1 Bft) N-NO 0,00 h 0,051 mm 0,0 UV-I 7 W/m -1,0 C 4,6 C 5,0 km/h (1 Bft)
25.03.2014 19:00 2,9 C 78 % 1010,6 hPa 0,0 l/m 1,6 km/h (1 Bft) O 0,00 h 0,025 mm 0,0 UV-I 0 W/m -0,6 C 2,9 C 3,3 km/h (1 Bft)
25.03.2014 20:00 1,7 C 84 % 1010,9 hPa 0,0 l/m 0,4 km/h (0 Bft) O-NO 0,00 h 0,025 mm 0,0 UV-I 0 W/m -0,7 C 1,7 C 1,1 km/h (1 Bft)
25.03.2014 21:00 0,5 C 88 % 1011,0 hPa 0,0 l/m 0,3 km/h (0 Bft) SO 0,00 h 0,000 mm 0,0 UV-I 0 W/m -1,2 C 0,5 C 0,7 km/h (0 Bft)
25.03.2014 22:00 -0,4 C 90 % 1011,2 hPa 0,0 l/m 0,8 km/h (0 Bft) NO 0,00 h 0,000 mm 0,0 UV-I 0 W/m -1,8 C -0,4 C 1,6 km/h (1 Bft)
25.03.2014 23:00 -1,1 C 92 % 1011,4 hPa 0,0 l/m 0,2 km/h (0 Bft) S-SO 0,00 h 0,000 mm 0,0 UV-I 0 W/m -2,3 C -1,1 C 0,3 km/h (0 Bft)
26.03.2014 00:00 -1,7 C 92 % 1011,5 hPa 0,0 l/m 0,1 km/h (0 Bft) O-NO 0,00 h 0,000 mm 0,0 UV-I 0 W/m -2,8 C -1,7 C 0,4 km/h (0 Bft)
26.03.2014 01:00 -2,2 C 93 % 1011,6 hPa 0,0 l/m 0,3 km/h (0 Bft) O-NO 0,00 h 0,000 mm 0,0 UV-I 0 W/m -3,2 C -2,2 C 0,6 km/h (0 Bft)
26.03.2014 02:00 -2,6 C 93 % 1011,8 hPa 0,0 l/m 0,2 km/h (0 Bft) O-NO 0,00 h 0,000 mm 0,0 UV-I 0 W/m -3,5 C -2,6 C 0,5 km/h (0 Bft)
26.03.2014 03:00 -2,9 C 93 % 1011,9 hPa 0,0 l/m 0,2 km/h (0 Bft) O-NO 0,00 h 0,000 mm 0,0 UV-I 0 W/m -3,8 C -2,9 C 0,5 km/h (0 Bft)
26.03.2014 04:00 -3,2 C 93 % 1012,1 hPa 0,0 l/m 0,1 km/h (0 Bft) O-NO 0,00 h 0,000 mm 0,0 UV-I 0 W/m -4,1 C -3,2 C 0,5 km/h (0 Bft)
26.03.2014 05:00 -3,4 C 93 % 1012,4 hPa 0,0 l/m 0,2 km/h (0 Bft) O-NO 0,00 h 0,000 mm 0,0 UV-I 0 W/m -4,3 C -3,4 C 0,5 km/h (0 Bft)
26.03.2014 06:00 -3,7 C 93 % 1013,0 hPa 0,0 l/m 0,0 km/h (0 Bft) N 0,00 h 0,000 mm 0,0 UV-I 20 W/m -4,7 C -3,7 C 0,2 km/h (0 Bft)
26.03.2014 07:00 -1,6 C 93 % 1013,7 hPa 0,0 l/m 0,1 km/h (0 Bft) O-NO 0,95 h 0,000 mm 0,6 UV-I 138 W/m -2,5 C -1,6 C 0,6 km/h (0 Bft)
26.03.2014 08:00 2,9 C 86 % 1014,1 hPa 0,0 l/m 1,4 km/h (1 Bft) O-NO 1,00 h 0,051 mm 1,0 UV-I 347 W/m 0,8 C 2,9 C 3,3 km/h (1 Bft)
26.03.2014 09:00 5,1 C 78 % 1014,4 hPa 0,0 l/m 5,4 km/h (1 Bft) SO 1,00 h 0,127 mm 1,8 UV-I 547 W/m 1,5 C 4,5 C 10,2 km/h (2 Bft)
26.03.2014 10:00 6,7 C 69 % 1014,6 hPa 0,0 l/m 6,8 km/h (2 Bft) O 1,00 h 0,229 mm 2,5 UV-I 639 W/m 1,4 C 5,8 C 12,8 km/h (3 Bft)
26.03.2014 11:00 6,7 C 64 % 1014,6 hPa 0,0 l/m 9,6 km/h (2 Bft) SO 1,00 h 0,279 mm 2,3 UV-I 398 W/m 0,4 C 4,3 C 16,9 km/h (3 Bft)
26.03.2014 12:00 7,7 C 59 % 1014,5 hPa 0,0 l/m 8,7 km/h (2 Bft) O-SO 1,00 h 0,229 mm 2,6 UV-I 418 W/m 0,2 C 5,8 C 15,4 km/h (3 Bft)
26.03.2014 13:00 8,4 C 55 % 1014,2 hPa 0,0 l/m 12,2 km/h (2 Bft) SO 1,00 h 0,254 mm 2,7 UV-I 545 W/m -0,2 C 4,7 C 20,6 km/h (4 Bft)
26.03.2014 14:00 9,6 C 51 % 1013,9 hPa 0,0 l/m 12,3 km/h (3 Bft) O-SO 1,00 h 0,305 mm 2,3 UV-I 628 W/m -0,1 C 6,1 C 21,2 km/h (4 Bft)
26.03.2014 15:00 9,6 C 52 % 1013,8 hPa 0,0 l/m 11,0 km/h (2 Bft) O 1,00 h 0,330 mm 1,3 UV-I 391 W/m 0,1 C 6,7 C 19,6 km/h (3 Bft)
26.03.2014 16:00 8,7 C 57 % 1014,0 hPa 0,0 l/m 9,5 km/h (2 Bft) O 1,00 h 0,229 mm 0,7 UV-I 231 W/m 0,5 C 6,4 C 17,7 km/h (3 Bft)
26.03.2014 17:00 7,9 C 61 % 1014,5 hPa 0,0 l/m 10,4 km/h (2 Bft) O-NO 0,90 h 0,152 mm 0,0 UV-I 82 W/m 0,8 C 5,2 C 18,8 km/h (3 Bft)
26.03.2014 18:00 7,1 C 64 % 1015,1 hPa 0,0 l/m 8,0 km/h (2 Bft) O-NO 0,00 h 0,076 mm 0,0 UV-I 26 W/m 0,6 C 5,5 C 15,2 km/h (3 Bft)
26.03.2014 19:00 6,0 C 69 % 1015,4 hPa 0,0 l/m 7,5 km/h (2 Bft) O-NO 0,00 h 0,025 mm 0,0 UV-I 0 W/m 0,8 C 4,8 C 13,5 km/h (3 Bft)
26.03.2014 20:00 5,1 C 71 % 1015,8 hPa 0,0 l/m 6,1 km/h (2 Bft) O-NO 0,00 h 0,025 mm 0,0 UV-I 0 W/m 0,2 C 4,8 C 11,3 km/h (2 Bft)
26.03.2014 21:00 4,6 C 71 % 1015,8 hPa 0,0 l/m 7,5 km/h (2 Bft) O-NO 0,00 h 0,025 mm 0,0 UV-I 0 W/m -0,2 C 3,5 C 12,9 km/h (3 Bft)
26.03.2014 22:00 4,2 C 71 % 1015,8 hPa 0,0 l/m 4,6 km/h (1 Bft) O-NO 0,00 h 0,025 mm 0,0 UV-I 0 W/m -0,4 C 4,1 C 8,6 km/h (2 Bft)
26.03.2014 23:00 4,1 C 74 % 1015,5 hPa 0,0 l/m 5,8 km/h (2 Bft) O-NO 0,00 h 0,025 mm 0,0 UV-I 0 W/m -0,1 C 3,6 C 10,8 km/h (2 Bft)
27.03.2014 00:00 4,0 C 76 % 1015,2 hPa 0,0 l/m 6,9 km/h (2 Bft) O 0,00 h 0,025 mm 0,0 UV-I 0 W/m 0,2 C 3,2 C 12,6 km/h (3 Bft)
27.03.2014 01:00 4,3 C 76 % 1014,9 hPa 0,0 l/m 6,0 km/h (2 Bft) O 0,00 h 0,025 mm 0,0 UV-I 0 W/m 0,4 C 3,6 C 11,8 km/h (2 Bft)
27.03.2014 02:00 4,4 C 75 % 1014,7 hPa 0,0 l/m 6,0 km/h (2 Bft) O 0,00 h 0,025 mm 0,0 UV-I 0 W/m 0,3 C 3,7 C 11,6 km/h (2 Bft)
27.03.2014 03:00 3,7 C 77 % 1014,4 hPa 0,0 l/m 6,4 km/h (2 Bft) O-NO 0,00 h 0,025 mm 0,0 UV-I 0 W/m 0,1 C 3,0 C 11,6 km/h (2 Bft)
27.03.2014 04:00 3,2 C 79 % 1014,1 hPa 0,0 l/m 4,7 km/h (1 Bft) O-NO 0,00 h 0,025 mm 0,0 UV-I 0 W/m -0,2 C 2,8 C 9,3 km/h (2 Bft)
27.03.2014 05:00 2,8 C 80 % 1014,0 hPa 0,0 l/m 3,9 km/h (1 Bft) O-NO 0,00 h 0,025 mm 0,0 UV-I 0 W/m -0,3 C 2,7 C 7,1 km/h (2 Bft)
27.03.2014 06:00 2,6 C 82 % 1014,0 hPa 0,0 l/m 4,0 km/h (1 Bft) O-NO 0,17 h 0,000 mm 0,0 UV-I 27 W/m -0,2 C 2,5 C 8,0 km/h (2 Bft)
27.03.2014 07:00 4,6 C 76 % 1014,1 hPa 0,0 l/m 5,3 km/h (1 Bft) O 1,00 h 0,025 mm 0,6 UV-I 192 W/m 0,7 C 4,0 C 10,9 km/h (2 Bft)
27.03.2014 08:00 6,4 C 70 % 1014,0 hPa 0,0 l/m 7,2 km/h (2 Bft) O 1,00 h 0,076 mm 1,1 UV-I 373 W/m 1,3 C 5,2 C 13,6 km/h (3 Bft)
27.03.2014 09:00 8,3 C 64 % 1013,9 hPa 0,0 l/m 8,3 km/h (2 Bft) O 1,00 h 0,178 mm 1,9 UV-I 524 W/m 1,9 C 6,7 C 14,8 km/h (3 Bft)
27.03.2014 10:00 9,9 C 58 % 1013,6 hPa 0,0 l/m 10,6 km/h (2 Bft) O-NO 1,00 h 0,254 mm 2,7 UV-I 634 W/m 2,1 C 7,3 C 18,0 km/h (3 Bft)
27.03.2014 11:00 10,9 C 55 % 1013,4 hPa 0,0 l/m 9,9 km/h (2 Bft) SO 1,00 h 0,330 mm 3,2 UV-I 713 W/m 2,2 C 8,7 C 18,1 km/h (3 Bft)
27.03.2014 12:00 12,1 C 49 % 1012,9 hPa 0,2 l/m 10,4 km/h (2 Bft) O-SO 1,00 h 0,381 mm 3,3 UV-I 697 W/m 1,9 C 9,8 C 19,0 km/h (3 Bft)
27.03.2014 13:00 12,0 C 49 % 1012,5 hPa 0,0 l/m 9,2 km/h (2 Bft) O 1,00 h 0,381 mm 2,3 UV-I 421 W/m 1,6 C 10,2 C 17,1 km/h (3 Bft)
27.03.2014 14:00 12,3 C 48 % 1012,2 hPa 0,0 l/m 10,4 km/h (2 Bft) O-SO 1,00 h 0,279 mm 1,7 UV-I 324 W/m 1,7 C 10,1 C 17,7 km/h (3 Bft)
27.03.2014 15:00 12,7 C 46 % 1011,9 hPa 0,0 l/m 9,5 km/h (2 Bft) O-SO 1,00 h 0,254 mm 1,3 UV-I 423 W/m 1,3 C 11,0 C 17,3 km/h (3 Bft)
27.03.2014 16:00 12,6 C 47 % 1011,8 hPa 0,0 l/m 7,1 km/h (2 Bft) O-SO 1,00 h 0,254 mm 0,7 UV-I 302 W/m 1,6 C 11,6 C 12,9 km/h (3 Bft)
27.03.2014 17:00 12,0 C 47 % 1012,0 hPa 0,0 l/m 5,4 km/h (1 Bft) O 0,42 h 0,203 mm 0,5 UV-I 67 W/m 1,0 C 11,6 C 10,3 km/h (2 Bft)
27.03.2014 18:00 10,4 C 52 % 1012,5 hPa 0,0 l/m 3,9 km/h (1 Bft) O-NO 0,00 h 0,076 mm 0,0 UV-I 11 W/m 1,0 C 10,4 C 7,6 km/h (2 Bft)
27.03.2014 19:00 8,6 C 62 % 1013,1 hPa 0,0 l/m 3,7 km/h (1 Bft) O-NO 0,00 h 0,025 mm 0,0 UV-I 0 W/m 1,7 C 8,5 C 6,7 km/h (2 Bft)
27.03.2014 20:00 7,7 C 68 % 1013,5 hPa 0,0 l/m 6,7 km/h (2 Bft) O-NO 0,00 h 0,025 mm 0,0 UV-I 0 W/m 2,1 C 7,0 C 11,9 km/h (2 Bft)
27.03.2014 21:00 7,3 C 70 % 1014,0 hPa 0,0 l/m 6,3 km/h (2 Bft) O 0,00 h 0,025 mm 0,0 UV-I 0 W/m 2,1 C 6,6 C 11,2 km/h (2 Bft)
27.03.2014 22:00 6,8 C 69 % 1014,4 hPa 0,0 l/m 4,8 km/h (1 Bft) O-NO 0,00 h 0,025 mm 0,0 UV-I 0 W/m 1,6 C 6,7 C 9,2 km/h (2 Bft)
27.03.2014 23:00 5,8 C 72 % 1014,7 hPa 0,0 l/m 2,2 km/h (1 Bft) O 0,00 h 0,025 mm 0,0 UV-I 0 W/m 1,2 C 5,8 C 4,6 km/h (1 Bft)
28.03.2014 00:00 4,8 C 77 % 1015,1 hPa 0,0 l/m 1,4 km/h (1 Bft) O 0,00 h 0,025 mm 0,0 UV-I 0 W/m 1,1 C 4,8 C 3,4 km/h (1 Bft)
28.03.2014 01:00 4,4 C 79 % 1015,4 hPa 0,0 l/m 1,3 km/h (1 Bft) O 0,00 h 0,025 mm 0,0 UV-I 0 W/m 1,0 C 4,4 C 3,4 km/h (1 Bft)
28.03.2014 02:00 3,9 C 81 % 1015,6 hPa 0,0 l/m 2,3 km/h (1 Bft) O-NO 0,00 h 0,025 mm 0,0 UV-I 0 W/m 0,9 C 3,9 C 5,0 km/h (1 Bft)
28.03.2014 03:00 4,1 C 80 % 1015,5 hPa 0,0 l/m 5,0 km/h (1 Bft) O 0,00 h 0,025 mm 0,0 UV-I 0 W/m 1,0 C 3,7 C 10,5 km/h (2 Bft)
28.03.2014 04:00 3,9 C 81 % 1015,7 hPa 0,0 l/m 6,2 km/h (2 Bft) O-NO 0,00 h 0,000 mm 0,0 UV-I 0 W/m 1,0 C 3,1 C 11,4 km/h (2 Bft)
28.03.2014 05:00 3,7 C 82 % 1016,2 hPa 0,0 l/m 6,5 km/h (2 Bft) O-NO 0,00 h 0,025 mm 0,0 UV-I 0 W/m 0,9 C 3,0 C 11,1 km/h (2 Bft)
28.03.2014 06:00 3,7 C 82 % 1016,6 hPa 0,0 l/m 5,3 km/h (1 Bft) O-NO 0,00 h 0,000 mm 0,0 UV-I 19 W/m 0,9 C 3,4 C 9,5 km/h (2 Bft)
28.03.2014 07:00 5,2 C 78 % 1017,0 hPa 0,0 l/m 2,2 km/h (1 Bft) O-NO 0,98 h 0,025 mm 0,6 UV-I 145 W/m 1,6 C 5,2 C 4,9 km/h (1 Bft)
28.03.2014 08:00 7,5 C 71 % 1017,4 hPa 0,0 l/m 4,1 km/h (1 Bft) O-NO 1,00 h 0,076 mm 1,0 UV-I 263 W/m 2,5 C 7,4 C 7,5 km/h (2 Bft)
28.03.2014 09:00 8,3 C 68 % 1017,7 hPa 0,0 l/m 3,8 km/h (1 Bft) O 1,00 h 0,127 mm 1,2 UV-I 215 W/m 2,7 C 8,1 C 7,1 km/h (2 Bft)
28.03.2014 10:00 8,6 C 66 % 1018,0 hPa 0,0 l/m 6,5 km/h (2 Bft) O-NO 1,00 h 0,102 mm 1,1 UV-I 178 W/m 2,6 C 7,9 C 11,8 km/h (2 Bft)
28.03.2014 11:00 8,8 C 66 % 1018,3 hPa 0,0 l/m 6,5 km/h (2 Bft) N-NO 1,00 h 0,102 mm 1,3 UV-I 194 W/m 2,8 C 8,0 C 11,1 km/h (2 Bft)
28.03.2014 12:00 9,6 C 63 % 1018,3 hPa 0,0 l/m 7,4 km/h (2 Bft) O 1,00 h 0,102 mm 2,3 UV-I 377 W/m 2,9 C 8,5 C 12,3 km/h (3 Bft)
28.03.2014 13:00 11,1 C 58 % 1018,1 hPa 0,0 l/m 5,5 km/h (1 Bft) O-NO 1,00 h 0,203 mm 2,4 UV-I 480 W/m 3,2 C 10,6 C 9,8 km/h (2 Bft)
28.03.2014 14:00 11,6 C 54 % 1018,4 hPa 0,0 l/m 5,2 km/h (1 Bft) O-NO 1,00 h 0,254 mm 1,8 UV-I 413 W/m 2,7 C 11,2 C 9,3 km/h (2 Bft)
28.03.2014 15:00 12,6 C 52 % 1018,2 hPa 0,0 l/m 7,3 km/h (2 Bft) NO 1,00 h 0,229 mm 1,5 UV-I 454 W/m 2,9 C 11,6 C 11,3 km/h (2 Bft)
28.03.2014 16:00 12,5 C 48 % 1018,3 hPa 0,0 l/m 4,6 km/h (1 Bft) O 1,00 h 0,254 mm 0,8 UV-I 276 W/m 1,7 C 12,3 C 8,3 km/h (2 Bft)
28.03.2014 17:00 10,8 C 58 % 1018,7 hPa 0,0 l/m 6,1 km/h (2 Bft) O 0,32 h 0,178 mm 0,5 UV-I 54 W/m 2,8 C 10,3 C 10,8 km/h (2 Bft)
28.03.2014 18:00 9,0 C 66 % 1019,5 hPa 0,0 l/m 4,1 km/h (1 Bft) O-NO 0,00 h 0,051 mm 0,0 UV-I 13 W/m 3,0 C 8,9 C 7,6 km/h (2 Bft)
28.03.2014 19:00 7,4 C 72 % 1020,3 hPa 0,0 l/m 2,6 km/h (1 Bft) O-NO 0,00 h 0,025 mm 0,0 UV-I 0 W/m 2,8 C 7,4 C 5,8 km/h (2 Bft)
28.03.2014 20:00 6,5 C 76 % 1020,8 hPa 0,0 l/m 4,2 km/h (1 Bft) O-NO 0,00 h 0,025 mm 0,0 UV-I 0 W/m 2,6 C 6,4 C 7,7 km/h (2 Bft)
28.03.2014 21:00 6,4 C 77 % 1021,2 hPa 0,0 l/m 5,1 km/h (1 Bft) O 0,00 h 0,025 mm 0,0 UV-I 0 W/m 2,6 C 6,2 C 8,7 km/h (2 Bft)
28.03.2014 22:00 5,4 C 78 % 1021,7 hPa 0,0 l/m 0,3 km/h (0 Bft) O-SO 0,00 h 0,025 mm 0,0 UV-I 0 W/m 1,9 C 5,4 C 1,8 km/h (1 Bft)
28.03.2014 23:00 3,6 C 83 % 1022,0 hPa 0,0 l/m 1,1 km/h (1 Bft) O-NO 0,00 h 0,025 mm 0,0 UV-I 0 W/m 1,0 C 3,6 C 3,3 km/h (1 Bft)
29.03.2014 00:00 3,2 C 86 % 1022,3 hPa 0,0 l/m 4,0 km/h (1 Bft) O-NO 0,00 h 0,000 mm 0,0 UV-I 0 W/m 1,1 C 3,0 C 7,9 km/h (2 Bft)
29.03.2014 01:00 3,1 C 88 % 1022,5 hPa 0,0 l/m 3,4 km/h (1 Bft) O 0,00 h 0,000 mm 0,0 UV-I 0 W/m 1,3 C 3,0 C 6,7 km/h (2 Bft)
29.03.2014 02:00 2,5 C 86 % 1022,7 hPa 0,0 l/m 2,3 km/h (1 Bft) O-NO 0,00 h 0,000 mm 0,0 UV-I 0 W/m 0,4 C 2,5 C 4,9 km/h (1 Bft)
29.03.2014 03:00 1,3 C 90 % 1022,8 hPa 0,0 l/m 0,3 km/h (0 Bft) O 0,00 h 0,000 mm 0,0 UV-I 0 W/m -0,2 C 1,3 C 1,3 km/h (1 Bft)
29.03.2014 04:00 0,8 C 91 % 1022,7 hPa 0,0 l/m 1,6 km/h (1 Bft) N-NO 0,00 h 0,000 mm 0,0 UV-I 0 W/m -0,5 C 0,8 C 3,7 km/h (1 Bft)
29.03.2014 05:00 0,3 C 91 % 1022,8 hPa 0,0 l/m 0,1 km/h (0 Bft) N-NO 0,00 h 0,000 mm 0,0 UV-I 5 W/m -1,0 C 0,3 C 0,9 km/h (0 Bft)
29.03.2014 06:00 0,0 C 92 % 1023,0 hPa 0,0 l/m 0,3 km/h (0 Bft) NO 0,00 h 0,000 mm 0,0 UV-I 24 W/m -1,1 C 0,0 C 1,0 km/h (0 Bft)
29.03.2014 07:00 4,3 C 87 % 1023,2 hPa 0,0 l/m 2,4 km/h (1 Bft) O-NO 1,00 h 0,000 mm 0,6 UV-I 178 W/m 2,3 C 4,3 C 4,8 km/h (1 Bft)
29.03.2014 08:00 9,4 C 76 % 1023,2 hPa 0,0 l/m 2,4 km/h (1 Bft) S-SO 1,00 h 0,076 mm 1,2 UV-I 377 W/m 5,4 C 9,4 C 4,9 km/h (1 Bft)
29.03.2014 09:00 11,7 C 67 % 1023,2 hPa 0,0 l/m 6,9 km/h (2 Bft) O 1,00 h 0,178 mm 2,1 UV-I 506 W/m 5,8 C 10,8 C 12,2 km/h (2 Bft)
29.03.2014 10:00 12,2 C 67 % 1023,2 hPa 0,0 l/m 8,9 km/h (2 Bft) O-SO 1,00 h 0,279 mm 2,9 UV-I 619 W/m 6,3 C 10,6 C 16,1 km/h (3 Bft)
29.03.2014 11:00 13,4 C 62 % 1022,9 hPa 0,0 l/m 8,2 km/h (2 Bft) SO 1,00 h 0,330 mm 3,5 UV-I 679 W/m 6,4 C 12,2 C 14,5 km/h (3 Bft)
29.03.2014 12:00 14,9 C 55 % 1022,3 hPa 0,0 l/m 8,4 km/h (2 Bft) SO 1,00 h 0,381 mm 3,7 UV-I 705 W/m 5,9 C 13,6 C 14,1 km/h (3 Bft)
29.03.2014 13:00 16,2 C 51 % 1021,6 hPa 0,0 l/m 7,7 km/h (2 Bft) O 1,00 h 0,406 mm 3,3 UV-I 660 W/m 5,9 C 15,3 C 13,8 km/h (3 Bft)
29.03.2014 14:00 16,7 C 47 % 1021,0 hPa 0,0 l/m 7,8 km/h (2 Bft) O 1,00 h 0,406 mm 2,5 UV-I 584 W/m 5,2 C 15,7 C 13,4 km/h (3 Bft)
29.03.2014 15:00 16,8 C 44 % 1020,5 hPa 0,0 l/m 8,1 km/h (2 Bft) SO 1,00 h 0,381 mm 1,7 UV-I 447 W/m 4,6 C 15,8 C 14,5 km/h (3 Bft)
29.03.2014 16:00 16,2 C 46 % 1020,2 hPa 0,0 l/m 7,4 km/h (2 Bft) O-SO 1,00 h 0,305 mm 0,8 UV-I 256 W/m 4,5 C 15,4 C 13,1 km/h (3 Bft)
29.03.2014 17:00 15,6 C 48 % 1019,9 hPa 0,0 l/m 5,0 km/h (1 Bft) O 0,75 h 0,203 mm 0,5 UV-I 90 W/m 4,7 C 15,3 C 9,5 km/h (2 Bft)
29.03.2014 18:00 13,6 C 57 % 1019,9 hPa 0,0 l/m 1,5 km/h (1 Bft) O-NO 0,00 h 0,078 mm 0,0 UV-I 14 W/m 5,2 C 13,6 C 3,6 km/h (1 Bft)
29.03.2014 19:00 11,3 C 63 % 1019,9 hPa 0,0 l/m 1,7 km/h (1 Bft) O-NO 0,00 h 0,025 mm 0,0 UV-I 0 W/m 4,5 C 11,3 C 3,7 km/h (1 Bft)
29.03.2014 20:00 9,8 C 71 % 1019,9 hPa 0,0 l/m 0,6 km/h (0 Bft) O 0,00 h 0,025 mm 0,0 UV-I 0 W/m 4,9 C 9,8 C 1,7 km/h (1 Bft)
29.03.2014 21:00 10,1 C 74 % 1019,6 hPa 0,0 l/m 2,9 km/h (1 Bft) O 0,00 h 0,025 mm 0,0 UV-I 0 W/m 5,7 C 10,1 C 6,0 km/h (2 Bft)
29.03.2014 22:00 10,2 C 73 % 1019,5 hPa 0,0 l/m 3,4 km/h (1 Bft) O 0,00 h 0,025 mm 0,0 UV-I 0 W/m 5,6 C 10,2 C 6,7 km/h (2 Bft)
29.03.2014 23:00 10,6 C 67 % 1019,3 hPa 0,0 l/m 3,7 km/h (1 Bft) O 0,00 h 0,025 mm 0,0 UV-I 0 W/m 4,8 C 10,6 C 6,9 km/h (2 Bft)
30.03.2014 00:00 9,5 C 70 % 1019,1 hPa 0,0 l/m 4,5 km/h (1 Bft) O-NO 0,00 h 0,025 mm 0,0 UV-I 0 W/m 4,3 C 9,4 C 7,6 km/h (2 Bft)
30.03.2014 01:00 8,4 C 75 % 1018,7 hPa 0,0 l/m 7,3 km/h (2 Bft) O-NO 0,00 h 0,025 mm 0,0 UV-I 0 W/m 4,3 C 7,5 C 12,0 km/h (2 Bft)
30.03.2014 03:00 5,7 C 81 % 1018,2 hPa 0,0 l/m 2,1 km/h (1 Bft) O 0,00 h 0,025 mm 0,0 UV-I 0 W/m 2,7 C 5,7 C 4,6 km/h (1 Bft)
30.03.2014 04:00 3,1 C 88 % 1018,0 hPa 0,0 l/m 2,3 km/h (1 Bft) O-NO 0,00 h 0,000 mm 0,0 UV-I 0 W/m 1,3 C 3,1 C 4,6 km/h (1 Bft)
30.03.2014 05:00 2,5 C 90 % 1017,9 hPa 0,0 l/m 0,7 km/h (0 Bft) N-NO 0,00 h 0,000 mm 0,0 UV-I 0 W/m 1,0 C 2,5 C 2,1 km/h (1 Bft)
30.03.2014 06:00 1,8 C 92 % 1017,9 hPa 0,0 l/m 0,5 km/h (0 Bft) N-NO 0,00 h 0,000 mm 0,0 UV-I 5 W/m 0,6 C 1,8 C 1,2 km/h (1 Bft)
30.03.2014 07:00 1,7 C 93 % 1018,1 hPa 0,0 l/m 0,5 km/h (0 Bft) N-NW 0,07 h 0,000 mm 0,0 UV-I 27 W/m 0,7 C 1,7 C 1,2 km/h (1 Bft)
30.03.2014 08:00 4,1 C 90 % 1018,0 hPa 0,0 l/m 0,5 km/h (0 Bft) W-NW 1,00 h 0,000 mm 0,6 UV-I 195 W/m 2,6 C 4,1 C 1,3 km/h (1 Bft)
30.03.2014 09:00 9,3 C 77 % 1017,9 hPa 0,0 l/m 1,6 km/h (1 Bft) W 1,00 h 0,076 mm 1,2 UV-I 392 W/m 5,4 C 9,3 C 3,4 km/h (1 Bft)
30.03.2014 10:00 13,2 C 60 % 1017,6 hPa 0,0 l/m 3,9 km/h (1 Bft) SO 1,00 h 0,178 mm 2,2 UV-I 548 W/m 5,6 C 13,1 C 6,6 km/h (2 Bft)
30.03.2014 11:00 15,4 C 54 % 1017,4 hPa 0,0 l/m 3,7 km/h (1 Bft) N-NO 1,00 h 0,305 mm 3,1 UV-I 652 W/m 6,3 C 15,4 C 6,9 km/h (2 Bft)
30.03.2014 12:00 17,1 C 49 % 1016,6 hPa 0,0 l/m 3,3 km/h (1 Bft) O-NO 1,00 h 0,356 mm 3,7 UV-I 714 W/m 6,3 C 17,0 C 6,6 km/h (2 Bft)
30.03.2014 13:00 18,6 C 41 % 1016,1 hPa 0,0 l/m 3,2 km/h (1 Bft) O-NO 1,00 h 0,406 mm 3,9 UV-I 732 W/m 5,0 C 18,5 C 5,9 km/h (2 Bft)
30.03.2014 14:00 19,3 C 34 % 1015,6 hPa 0,0 l/m 2,6 km/h (1 Bft) O-SO 1,00 h 0,432 mm 3,4 UV-I 671 W/m 2,9 C 19,3 C 5,0 km/h (1 Bft)
30.03.2014 15:00 19,6 C 31 % 1015,0 hPa 0,0 l/m 3,0 km/h (1 Bft) SO 1,00 h 0,406 mm 2,7 UV-I 574 W/m 2,0 C 19,6 C 5,2 km/h (1 Bft)
30.03.2014 16:00 19,7 C 31 % 1014,7 hPa 0,0 l/m 4,3 km/h (1 Bft) W 1,00 h 0,356 mm 1,6 UV-I 389 W/m 2,0 C 19,7 C 7,1 km/h (2 Bft)
30.03.2014 17:00 19,4 C 31 % 1014,4 hPa 0,0 l/m 3,5 km/h (1 Bft) W-NW 1,00 h 0,279 mm 0,9 UV-I 266 W/m 1,8 C 19,3 C 5,8 km/h (2 Bft)
30.03.2014 18:00 18,5 C 33 % 1014,3 hPa 0,0 l/m 1,7 km/h (1 Bft) W-NW 0,72 h 0,203 mm 0,5 UV-I 85 W/m 1,7 C 18,5 C 3,2 km/h (1 Bft)
30.03.2014 19:00 15,3 C 47 % 1014,4 hPa 0,0 l/m 1,1 km/h (0 Bft) O 0,00 h 0,076 mm 0,0 UV-I 13 W/m 3,7 C 15,3 C 2,2 km/h (1 Bft)
30.03.2014 20:00 11,4 C 65 % 1014,7 hPa 0,0 l/m 0,4 km/h (0 Bft) O-SO 0,00 h 0,025 mm 0,0 UV-I 0 W/m 5,0 C 11,4 C 1,4 km/h (1 Bft)
30.03.2014 21:00 9,4 C 74 % 1014,8 hPa 0,0 l/m 0,7 km/h (0 Bft) N 0,00 h 0,025 mm 0,0 UV-I 0 W/m 5,0 C 9,4 C 1,7 km/h (1 Bft)
30.03.2014 22:00 8,1 C 78 % 1014,9 hPa 0,0 l/m 0,5 km/h (0 Bft) S-SO 0,00 h 0,025 mm 0,0 UV-I 0 W/m 4,4 C 8,1 C 1,2 km/h (1 Bft)
30.03.2014 23:00 6,9 C 82 % 1015,1 hPa 0,0 l/m 0,5 km/h (0 Bft) O-NO 0,00 h 0,025 mm 0,0 UV-I 0 W/m 4,0 C 6,9 C 1,3 km/h (1 Bft)
Min-Datum _ 26.03.14 30.03.14 24.03.14 - 24.03.14 - - - - - 26.03.14 26.03.14 24.03.14
_ Min-Zeit 06:26 15:50 00:00 - 00:15 - - - - - 06:29 06:26 00:18
Minimum _ -3,8 C 27 % 1007,6 hPa - 0,0 km/h (0 Bft) - - - - - -4,9 C -3,8 C 0,0 km/h (0 Bft)
Max-Datum _ 30.03.14 25.03.14 29.03.14 24.03.14 26.03.14 - 27.03.14 30.03.14 30.03.14 25.03.14 29.03.14 30.03.14 26.03.14
_ Max-Zeit 16:04 07:36 10:06 01:18 11:10 - 11:19 14:00 13:08 11:43 13:23 16:44 14:26
Maximum _ 20,1 C 97 % 1023,4 hPa 0,4 l/m 24,1 km/h
SO (4 Bft)
- 0,07 h 0,432 mm 4,0 UV-I 898 W/m 7,9 C 20,1 C 35,4 km/h
O-SO (5 Bft)
Durchschnitt _ 6,2 C 74 % 1015,0 hPa #1,4 l/m 4,0 km/h (1 Bft) O-NO #72:44 h #15,629 mm 1,6 UV-I 289 W/m 1,4 C 5,7 C 7,2 km/h (2 Bft)